createdAt,value
2022-12-09T00:02:18.510Z,1.21
2022-12-09T00:04:45.834Z,1.12
2022-12-09T00:07:12.846Z,1.14
2022-12-09T00:09:39.888Z,1.09
2022-12-09T00:12:06.758Z,1.10
2022-12-09T00:14:33.694Z,1.18
2022-12-09T00:17:00.599Z,1.15
2022-12-09T00:19:27.657Z,1.16
2022-12-09T00:21:54.606Z,1.24
2022-12-09T00:24:21.431Z,1.16
2022-12-09T00:26:48.332Z,1.16
2022-12-09T00:29:15.318Z,1.10
2022-12-09T00:31:42.246Z,1.18
2022-12-09T00:34:11.614Z,1.19
2022-12-09T00:36:38.899Z,1.22
2022-12-09T00:39:06.005Z,1.10
2022-12-09T00:41:33.056Z,1.02
2022-12-09T00:44:00.099Z,1.01
2022-12-09T00:46:27.070Z,1.02
2022-12-09T00:48:53.963Z,0.92
2022-12-09T00:51:21.852Z,0.92
2022-12-09T00:53:53.261Z,0.90
2022-12-09T00:56:21.282Z,0.90
2022-12-09T00:58:48.644Z,0.84
2022-12-09T01:01:15.671Z,0.80
2022-12-09T01:03:42.704Z,0.75
2022-12-09T01:06:11.356Z,0.63
2022-12-09T01:08:39.312Z,0.57
2022-12-09T01:11:10.815Z,0.53
2022-12-09T01:13:37.885Z,0.46
2022-12-09T01:16:05.034Z,0.44
2022-12-09T01:18:32.097Z,0.32
2022-12-09T01:20:59.354Z,0.30
2022-12-09T01:23:26.369Z,0.14
2022-12-09T01:25:53.261Z,0.13
2022-12-09T01:28:20.334Z,0.06
2022-12-09T01:30:47.571Z,0.05
2022-12-09T01:33:14.557Z,0.08
2022-12-09T01:35:41.668Z,0.10
2022-12-09T01:38:08.559Z,0.12
2022-12-09T01:40:35.419Z,0.10
2022-12-09T01:43:02.569Z,0.11
2022-12-09T01:45:32.755Z,0.07
2022-12-09T01:48:11.364Z,-0.02
2022-12-09T01:50:43.996Z,-0.06
2022-12-09T01:53:11.864Z,-0.13
2022-12-09T01:55:39.785Z,-0.17
2022-12-09T01:58:06.962Z,-0.27
2022-12-09T02:00:34.136Z,-0.28
2022-12-09T02:03:02.799Z,-0.34
2022-12-09T02:05:30.929Z,-0.37
2022-12-09T02:07:59.313Z,-0.45
2022-12-09T02:10:27.373Z,-2.23
2022-12-09T02:12:59.930Z,-0.47
2022-12-09T02:15:47.170Z,-0.49
2022-12-09T02:18:16.977Z,-0.56
2022-12-09T02:21:02.609Z,-0.55
2022-12-09T02:23:32.552Z,-0.62
2022-12-09T02:26:20.784Z,-0.62
2022-12-09T02:28:56.998Z,-0.72
2022-12-09T02:31:26.736Z,-0.75
2022-12-09T02:33:54.331Z,-0.74
2022-12-09T02:36:25.057Z,-0.80
2022-12-09T02:38:52.929Z,-0.71
2022-12-09T02:41:29.249Z,-0.80
2022-12-09T02:44:00.413Z,-0.88
2022-12-09T02:46:31.953Z,-0.90
2022-12-09T02:48:59.521Z,-0.93
2022-12-09T02:51:28.725Z,-0.96
2022-12-09T02:53:59.154Z,-0.99
2022-12-09T02:56:27.221Z,-1.01
2022-12-09T02:58:54.799Z,-1.06
2022-12-09T03:01:29.427Z,-1.06
2022-12-09T03:03:56.732Z,-1.11
2022-12-09T03:06:27.155Z,-1.11
2022-12-09T03:09:23.415Z,-1.14
2022-12-09T03:11:50.812Z,-1.17
2022-12-09T03:14:28.925Z,-1.18
2022-12-09T03:17:04.930Z,-1.21
2022-12-09T03:19:36.241Z,-1.26
2022-12-09T03:22:06.558Z,-1.27
2022-12-09T03:24:37.592Z,-1.31
2022-12-09T03:27:06.997Z,-1.31
2022-12-09T03:29:35.869Z,-1.30
2022-12-09T03:32:03.100Z,-1.35
2022-12-09T03:34:31.850Z,-1.32
2022-12-09T03:37:00.064Z,-2.31
2022-12-09T03:39:29.226Z,-1.31
2022-12-09T03:42:00.253Z,-1.36
2022-12-09T03:44:32.465Z,-1.41
2022-12-09T03:47:00.182Z,-1.51
2022-12-09T03:49:27.159Z,-1.54
2022-12-09T03:51:57.314Z,-1.58
2022-12-09T03:54:29.887Z,-1.57
2022-12-09T03:56:58.409Z,-1.60
2022-12-09T03:59:28.070Z,-1.59
2022-12-09T04:01:55.468Z,-1.64
2022-12-09T04:04:22.614Z,-1.65
2022-12-09T04:06:51.725Z,-1.65
2022-12-09T04:09:19.024Z,-1.64
2022-12-09T04:11:45.938Z,-1.69
2022-12-09T04:14:15.859Z,-1.67
2022-12-09T04:16:43.684Z,-1.54
2022-12-09T04:19:10.913Z,-1.54
2022-12-09T04:21:37.954Z,-1.59
2022-12-09T04:24:05.009Z,-1.63
2022-12-09T04:26:32.236Z,-1.70
2022-12-09T04:28:59.129Z,-1.70
2022-12-09T04:31:26.494Z,-1.71
2022-12-09T04:33:53.576Z,-1.81
2022-12-09T04:36:20.656Z,-1.81
2022-12-09T04:38:48.418Z,-1.87
2022-12-09T04:41:16.186Z,-1.76
2022-12-09T04:43:43.320Z,-1.79
2022-12-09T04:46:14.414Z,-1.72
2022-12-09T04:48:41.382Z,-1.59
2022-12-09T04:51:09.723Z,-1.46
2022-12-09T04:53:36.971Z,-1.37
2022-12-09T04:56:08.543Z,-1.39
2022-12-09T04:58:35.540Z,-1.30
2022-12-09T05:01:09.779Z,-1.26
2022-12-09T05:03:37.628Z,-1.33
2022-12-09T05:06:05.967Z,-1.40
2022-12-09T05:08:33.481Z,-1.43
2022-12-09T05:11:00.858Z,-1.58
2022-12-09T05:13:28.170Z,-1.66
2022-12-09T05:16:02.021Z,-1.59
2022-12-09T05:18:29.766Z,-1.55
2022-12-09T05:20:57.220Z,-1.55
2022-12-09T05:23:24.879Z,-1.57
2022-12-09T05:25:51.840Z,-1.55
2022-12-09T05:28:20.097Z,-1.48
2022-12-09T05:30:47.479Z,-1.46
2022-12-09T05:33:14.618Z,-1.34
2022-12-09T05:35:52.465Z,-1.38
2022-12-09T05:38:20.315Z,-1.35
2022-12-09T05:40:47.407Z,-1.36
2022-12-09T05:43:15.011Z,-1.42
2022-12-09T05:45:42.073Z,-1.51
2022-12-09T05:48:09.206Z,-1.61
2022-12-09T05:50:36.643Z,-1.65
2022-12-09T05:53:03.878Z,-1.70
2022-12-09T05:55:30.844Z,-1.66
2022-12-09T05:57:58.009Z,-1.67
2022-12-09T06:00:25.156Z,-1.73
2022-12-09T06:02:52.545Z,-1.80
2022-12-09T06:05:19.937Z,-1.84
2022-12-09T06:07:47.348Z,-1.92
2022-12-09T06:10:14.755Z,-1.94
2022-12-09T06:12:41.864Z,-1.88
2022-12-09T06:15:10.566Z,-1.85
2022-12-09T06:17:38.101Z,-1.80
2022-12-09T06:20:05.803Z,-1.81
2022-12-09T06:22:34.520Z,-1.86
2022-12-09T06:25:01.447Z,-1.88
2022-12-09T06:27:28.255Z,-1.83
2022-12-09T06:29:55.309Z,-1.90
2022-12-09T06:32:22.579Z,-1.85
2022-12-09T06:34:50.070Z,-1.86
2022-12-09T06:37:17.126Z,-1.88
2022-12-09T06:39:44.322Z,-1.98
2022-12-09T06:42:11.416Z,-2.11
2022-12-09T06:44:40.242Z,-2.21
2022-12-09T06:47:08.361Z,-2.22
2022-12-09T06:49:35.680Z,-2.24
2022-12-09T06:52:03.171Z,-2.13
2022-12-09T06:54:30.383Z,-2.07
2022-12-09T06:56:57.716Z,-2.02
2022-12-09T06:59:25.456Z,-1.96
2022-12-09T07:01:52.693Z,-1.97
2022-12-09T07:04:19.692Z,-2.03
2022-12-09T07:06:47.096Z,-2.07
2022-12-09T07:09:18.862Z,-2.04
2022-12-09T07:11:47.133Z,-2.10
2022-12-09T07:14:15.452Z,-2.03
2022-12-09T07:16:43.044Z,-1.91
2022-12-09T07:19:18.271Z,-1.96
2022-12-09T07:21:45.676Z,-1.97
2022-12-09T07:24:12.805Z,-2.07
2022-12-09T07:26:40.190Z,-2.15
2022-12-09T07:29:07.418Z,-2.27
2022-12-09T07:31:34.923Z,-2.32
2022-12-09T07:34:03.109Z,-2.32
2022-12-09T07:36:31.563Z,-2.40
2022-12-09T07:39:00.156Z,-2.38
2022-12-09T07:41:27.440Z,-2.49
2022-12-09T07:43:54.528Z,-2.49
2022-12-09T07:46:22.535Z,-2.51
2022-12-09T07:48:50.174Z,-2.53
2022-12-09T07:51:17.678Z,-2.64
2022-12-09T07:53:45.330Z,-2.62
2022-12-09T07:56:14.756Z,-2.59
2022-12-09T07:58:42.355Z,-2.57
2022-12-09T08:01:10.785Z,-2.59
2022-12-09T08:03:38.304Z,-2.54
2022-12-09T08:06:05.841Z,-2.48
2022-12-09T08:08:33.044Z,-2.48
2022-12-09T08:11:10.952Z,-2.41
2022-12-09T08:13:37.993Z,-2.36
2022-12-09T08:16:06.299Z,-2.29
2022-12-09T08:18:34.439Z,-2.15
2022-12-09T08:21:06.814Z,-2.10
2022-12-09T08:23:34.334Z,-2.04
2022-12-09T08:26:01.737Z,-1.97
2022-12-09T08:28:29.495Z,-2.78
2022-12-09T08:30:57.416Z,-1.76
2022-12-09T08:33:24.595Z,-1.76
2022-12-09T08:35:51.769Z,-1.75
2022-12-09T08:38:18.680Z,-1.67
2022-12-09T08:40:45.755Z,-1.49
2022-12-09T08:43:12.760Z,-1.49
2022-12-09T08:45:40.838Z,-1.42
2022-12-09T08:48:08.785Z,-1.32
2022-12-09T08:50:36.175Z,-1.26
2022-12-09T08:53:03.201Z,-1.18
2022-12-09T08:55:30.135Z,-1.35
2022-12-09T08:57:57.364Z,-1.27
2022-12-09T09:00:24.354Z,-1.10
2022-12-09T09:02:51.569Z,-1.09
2022-12-09T09:05:19.108Z,-0.99
2022-12-09T09:07:46.921Z,-0.99
2022-12-09T09:10:14.626Z,-1.17
2022-12-09T09:12:43.864Z,-1.29
2022-12-09T09:15:12.822Z,-1.44
2022-12-09T09:17:40.365Z,-1.43
2022-12-09T09:20:08.646Z,-1.40
2022-12-09T09:22:36.555Z,-2.37
2022-12-09T09:25:04.020Z,-1.41
2022-12-09T09:27:32.245Z,-1.46
2022-12-09T09:29:59.442Z,-1.44
2022-12-09T09:32:26.559Z,-1.48
2022-12-09T09:34:53.756Z,-1.47
2022-12-09T09:37:21.381Z,-1.40
2022-12-09T09:39:48.600Z,-1.38
2022-12-09T09:42:19.121Z,-1.35
2022-12-09T09:44:47.783Z,-1.39
2022-12-09T09:47:17.744Z,-1.34
2022-12-09T09:49:58.950Z,-1.20
2022-12-09T09:52:26.832Z,-1.05
2022-12-09T09:54:55.587Z,-1.09
2022-12-09T09:57:29.130Z,-0.99
2022-12-09T10:00:08.856Z,-0.81
2022-12-09T10:02:59.598Z,-0.60
2022-12-09T10:05:35.525Z,-0.33
2022-12-09T10:08:10.369Z,-0.36
2022-12-09T10:11:07.047Z,-0.39
2022-12-09T10:13:54.993Z,-0.56
2022-12-09T10:16:35.782Z,-0.67
2022-12-09T10:19:10.573Z,-0.64
2022-12-09T10:21:40.242Z,-0.52
2022-12-09T10:24:16.808Z,-0.45
2022-12-09T10:26:48.364Z,-0.31
2022-12-09T10:29:23.946Z,-0.31
2022-12-09T10:31:51.412Z,-0.04
2022-12-09T10:34:18.653Z,0.06
2022-12-09T10:36:46.762Z,0.29
2022-12-09T10:39:21.326Z,0.51
2022-12-09T10:42:16.323Z,0.69
2022-12-09T10:44:43.872Z,0.69
2022-12-09T10:47:26.105Z,0.74
2022-12-09T10:49:54.428Z,0.95
2022-12-09T10:52:23.628Z,1.20
2022-12-09T10:54:50.953Z,1.41
2022-12-09T10:57:17.914Z,1.21
2022-12-09T10:59:59.410Z,1.14
2022-12-09T11:02:28.566Z,1.27
2022-12-09T11:04:55.958Z,1.29
2022-12-09T11:07:27.174Z,1.28
2022-12-09T11:09:54.443Z,1.22
2022-12-09T11:12:29.175Z,1.46
2022-12-09T11:14:59.835Z,1.42
2022-12-09T11:17:28.521Z,1.38
2022-12-09T11:20:14.395Z,1.40
2022-12-09T11:22:45.008Z,1.46
2022-12-09T11:25:12.601Z,1.48
2022-12-09T11:27:41.491Z,1.65
2022-12-09T11:30:14.279Z,1.71
2022-12-09T11:33:00.848Z,1.64
2022-12-09T11:35:37.362Z,1.87
2022-12-09T11:38:14.892Z,1.80
2022-12-09T11:40:41.764Z,1.71
2022-12-09T11:43:09.370Z,1.79
2022-12-09T11:45:40.337Z,1.81
2022-12-09T11:48:36.278Z,1.88
2022-12-09T11:51:02.730Z,1.92
2022-12-09T11:53:31.208Z,1.88
2022-12-09T11:56:05.399Z,1.90
2022-12-09T11:58:40.803Z,1.97
2022-12-09T12:01:26.152Z,1.98
2022-12-09T12:03:57.450Z,2.10
2022-12-09T12:06:26.224Z,2.18
2022-12-09T12:08:56.508Z,2.11
2022-12-09T12:11:28.653Z,2.27
2022-12-09T12:14:03.387Z,2.23
2022-12-09T12:16:39.815Z,2.30
2022-12-09T12:19:06.887Z,2.32
2022-12-09T12:21:53.766Z,2.48
2022-12-09T12:24:34.712Z,2.40
2022-12-09T12:27:01.537Z,2.54
2022-12-09T12:29:31.171Z,2.52
2022-12-09T12:32:13.354Z,2.57
2022-12-09T12:34:55.172Z,2.58
2022-12-09T12:37:24.959Z,2.66
2022-12-09T12:40:00.660Z,2.62
2022-12-09T12:42:32.830Z,2.65
2022-12-09T12:45:31.894Z,2.66
2022-12-09T12:47:58.739Z,2.74
2022-12-09T12:50:38.638Z,2.81
2022-12-09T12:53:14.683Z,2.82
2022-12-09T12:55:47.576Z,2.94
2022-12-09T12:58:27.107Z,2.92
2022-12-09T13:01:06.027Z,3.09
2022-12-09T13:03:36.016Z,3.31
2022-12-09T13:06:03.629Z,3.59
2022-12-09T13:08:36.352Z,3.66
2022-12-09T13:11:17.001Z,3.78
2022-12-09T13:13:51.277Z,3.81
2022-12-09T13:16:20.929Z,3.74
2022-12-09T13:18:49.040Z,3.55
2022-12-09T13:21:16.804Z,3.24
2022-12-09T13:24:02.114Z,3.08
2022-12-09T13:26:37.781Z,2.96
2022-12-09T13:29:19.576Z,2.74
2022-12-09T13:31:59.943Z,2.58
2022-12-09T13:34:35.528Z,2.57
2022-12-09T13:37:02.363Z,2.41
2022-12-09T13:39:52.666Z,2.33
2022-12-09T13:42:46.305Z,2.24
2022-12-09T13:45:32.731Z,2.06
2022-12-09T13:48:05.830Z,2.10
2022-12-09T13:50:35.415Z,2.11
2022-12-09T13:53:22.047Z,2.20
2022-12-09T13:55:56.712Z,2.28
2022-12-09T13:58:32.650Z,2.28
2022-12-09T14:01:08.490Z,2.13
2022-12-09T14:03:54.140Z,2.06
2022-12-09T14:06:26.761Z,1.93
2022-12-09T14:08:56.979Z,1.83
2022-12-09T14:11:44.404Z,1.69
2022-12-09T14:14:23.460Z,1.59
2022-12-09T14:16:54.730Z,1.56
2022-12-09T14:19:41.779Z,1.49
2022-12-09T14:22:24.043Z,1.36
2022-12-09T14:24:58.030Z,1.28
2022-12-09T14:27:27.271Z,1.18
2022-12-09T14:29:54.090Z,1.12
2022-12-09T14:32:37.072Z,1.12
2022-12-09T14:35:06.812Z,1.10
2022-12-09T14:37:45.586Z,1.07
2022-12-09T14:40:15.183Z,1.03
2022-12-09T14:42:57.872Z,1.06
2022-12-09T14:45:35.908Z,1.12
2022-12-09T14:48:08.794Z,1.17
2022-12-09T14:50:38.507Z,1.18
2022-12-09T14:53:08.760Z,1.26
2022-12-09T14:55:38.384Z,1.23
2022-12-09T14:58:05.478Z,1.21
2022-12-09T15:00:35.462Z,1.25
2022-12-09T15:05:58.252Z,1.27
2022-12-09T15:08:29.367Z,1.13
2022-12-09T15:10:56.270Z,1.37
2022-12-09T15:13:24.662Z,1.36
2022-12-09T15:15:52.455Z,1.23
2022-12-09T15:18:26.324Z,1.16
2022-12-09T15:20:55.168Z,1.07
2022-12-09T15:23:32.709Z,1.00
2022-12-09T15:26:00.833Z,0.87
2022-12-09T15:28:29.417Z,0.81
2022-12-09T15:31:04.001Z,0.76
2022-12-09T15:33:32.025Z,0.71
2022-12-09T15:36:01.120Z,0.69
2022-12-09T15:38:35.954Z,0.69
2022-12-09T15:41:26.133Z,0.66
2022-12-09T15:43:57.860Z,0.67
2022-12-09T15:46:25.349Z,0.63
2022-12-09T15:48:56.346Z,0.52
2022-12-09T15:51:26.179Z,0.42
2022-12-09T15:53:56.127Z,0.35
2022-12-09T15:56:25.369Z,0.33
2022-12-09T15:58:53.862Z,0.33
2022-12-09T16:01:22.635Z,0.39
2022-12-09T16:03:50.390Z,0.49
2022-12-09T16:06:23.242Z,0.47
2022-12-09T16:08:50.059Z,0.55
2022-12-09T16:11:40.004Z,0.56
2022-12-09T16:14:07.456Z,0.65
2022-12-09T16:16:51.246Z,0.65
2022-12-09T16:19:36.393Z,0.68
2022-12-09T16:22:06.155Z,0.70
2022-12-09T16:24:58.084Z,0.68
2022-12-09T16:27:23.348Z,0.71
2022-12-09T16:29:51.973Z,0.78
2022-12-09T16:32:20.695Z,0.66
2022-12-09T16:34:52.549Z,0.70
2022-12-09T16:37:23.655Z,0.74
2022-12-09T16:39:50.495Z,0.83
2022-12-09T16:42:40.743Z,0.78
2022-12-09T16:45:28.587Z,0.87
2022-12-09T16:47:56.148Z,0.87
2022-12-09T16:50:26.234Z,0.92
2022-12-09T16:52:53.085Z,0.88
2022-12-09T16:55:22.296Z,0.88
2022-12-09T16:57:50.009Z,0.91
2022-12-09T17:00:17.536Z,0.86
2022-12-09T17:02:47.102Z,0.89
2022-12-09T17:05:13.950Z,0.83
2022-12-09T17:07:40.903Z,0.79
2022-12-09T17:10:08.126Z,0.78
2022-12-09T17:12:35.083Z,0.80
2022-12-09T17:15:01.995Z,0.98
2022-12-09T17:17:28.947Z,0.98
2022-12-09T17:19:55.907Z,1.00
2022-12-09T17:22:22.722Z,1.11
2022-12-09T17:24:49.640Z,1.20
2022-12-09T17:27:16.558Z,1.16
2022-12-09T17:29:46.032Z,1.16
2022-12-09T17:32:12.999Z,1.20
2022-12-09T17:34:39.837Z,1.24
2022-12-09T17:37:06.764Z,1.34
2022-12-09T17:39:33.691Z,1.28
2022-12-09T17:42:00.919Z,1.31
2022-12-09T17:44:27.878Z,1.36
2022-12-09T17:46:54.835Z,1.29
2022-12-09T17:49:21.853Z,1.29
2022-12-09T17:51:49.703Z,1.43
2022-12-09T17:54:16.569Z,1.42
2022-12-09T17:56:46.489Z,1.29
2022-12-09T17:59:14.642Z,1.16
2022-12-09T18:01:43.739Z,1.20
2022-12-09T18:04:10.882Z,1.27
2022-12-09T18:06:39.633Z,1.24
2022-12-09T18:09:07.599Z,1.27
2022-12-09T18:11:34.979Z,1.20
2022-12-09T18:14:02.366Z,1.29
2022-12-09T18:16:29.745Z,1.29
2022-12-09T18:19:00.758Z,1.32
2022-12-09T18:21:27.585Z,1.12
2022-12-09T18:23:54.501Z,0.92
2022-12-09T18:26:25.744Z,0.70
2022-12-09T18:28:56.641Z,0.45
2022-12-09T18:31:24.585Z,0.24
2022-12-09T18:33:52.064Z,0.10
2022-12-09T18:36:20.500Z,-0.02
2022-12-09T18:38:47.522Z,-0.13
2022-12-09T18:41:16.130Z,-0.17
2022-12-09T18:43:44.356Z,-0.23
2022-12-09T18:46:13.330Z,-0.26
2022-12-09T18:48:40.562Z,-0.30
2022-12-09T18:51:14.036Z,-0.35
2022-12-09T18:53:40.960Z,-0.41
2022-12-09T18:56:08.064Z,-0.49
2022-12-09T18:59:04.154Z,-0.51
2022-12-09T19:01:27.149Z,-0.53
2022-12-09T19:03:55.979Z,-0.58
2022-12-09T19:06:22.803Z,-0.60
2022-12-09T19:08:54.333Z,-0.60
2022-12-09T19:11:22.027Z,-0.60
2022-12-09T19:13:48.883Z,-0.65
2022-12-09T19:16:16.100Z,-0.65
2022-12-09T19:18:43.239Z,-0.69
2022-12-09T19:21:10.951Z,-0.80
2022-12-09T19:23:38.692Z,-0.88
2022-12-09T19:26:35.144Z,-0.95
2022-12-09T19:29:06.961Z,-1.02
2022-12-09T19:31:38.594Z,-1.04
2022-12-09T19:34:07.327Z,-1.08
2022-12-09T19:36:34.512Z,-1.13
2022-12-09T19:39:02.373Z,-1.19
2022-12-09T19:41:29.268Z,-1.23
2022-12-09T19:43:56.939Z,-1.26
2022-12-09T19:46:24.220Z,-1.29
2022-12-09T19:48:51.131Z,-1.33
2022-12-09T19:51:18.841Z,-1.38
2022-12-09T19:53:45.955Z,-1.41
2022-12-09T19:56:18.221Z,-1.43
2022-12-09T19:58:45.571Z,-1.47
2022-12-09T20:01:13.870Z,-1.44
2022-12-09T20:03:43.393Z,-1.49
2022-12-09T20:06:12.406Z,-1.55
2022-12-09T20:08:39.676Z,-1.62
2022-12-09T20:11:11.072Z,-1.65
2022-12-09T20:13:37.883Z,-1.69
2022-12-09T20:16:08.744Z,-1.71
2022-12-09T20:18:36.027Z,-1.72
2022-12-09T20:21:04.523Z,-1.74
2022-12-09T20:23:31.441Z,-1.80
2022-12-09T20:26:11.853Z,-1.82
2022-12-09T20:28:39.158Z,-1.81
2022-12-09T20:31:07.516Z,-1.80
2022-12-09T20:33:34.486Z,-1.82
2022-12-09T20:36:09.118Z,-1.83
2022-12-09T20:38:36.156Z,-1.84
2022-12-09T20:41:04.396Z,-1.84
2022-12-09T20:43:31.757Z,-1.83
2022-12-09T20:45:58.629Z,-1.87
2022-12-09T20:48:25.493Z,-1.93
2022-12-09T20:50:52.617Z,-1.93
2022-12-09T20:53:23.063Z,-1.92
2022-12-09T20:55:57.110Z,-1.95
2022-12-09T20:58:24.271Z,-1.95
2022-12-09T21:00:51.486Z,-1.94
2022-12-09T21:03:19.127Z,-1.96
2022-12-09T21:05:46.191Z,-1.97
2022-12-09T21:08:13.364Z,-2.00
2022-12-09T21:10:40.289Z,-2.05
2022-12-09T21:13:07.123Z,-2.09
2022-12-09T21:15:33.933Z,-2.18
2022-12-09T21:18:00.838Z,-2.21
2022-12-09T21:20:27.691Z,-2.25
2022-12-09T21:23:17.453Z,-2.26
2022-12-09T21:25:41.291Z,-2.31
2022-12-09T21:28:08.165Z,-2.34
2022-12-09T21:30:37.413Z,-2.34
2022-12-09T21:33:04.411Z,-2.36
2022-12-09T21:35:32.373Z,-2.41
2022-12-09T21:37:59.337Z,-2.43
2022-12-09T21:40:26.307Z,-2.42
2022-12-09T21:42:53.119Z,-2.44
2022-12-09T21:45:20.273Z,-2.45
2022-12-09T21:47:47.088Z,-2.51
2022-12-09T21:50:14.439Z,-2.50
2022-12-09T21:52:41.336Z,-2.53
2022-12-09T21:55:08.357Z,-2.55
2022-12-09T21:57:35.147Z,-2.56
2022-12-09T22:00:01.993Z,-2.54
2022-12-09T22:02:28.905Z,-2.57
2022-12-09T22:04:55.729Z,-2.58
2022-12-09T22:07:22.543Z,-2.62
2022-12-09T22:09:49.414Z,-2.65
2022-12-09T22:12:16.219Z,-2.70
2022-12-09T22:14:43.166Z,-2.73
2022-12-09T22:17:09.974Z,-2.74
2022-12-09T22:19:36.874Z,-2.78
2022-12-09T22:22:08.890Z,-2.79
2022-12-09T22:24:36.036Z,-2.80
2022-12-09T22:27:02.914Z,-2.85
2022-12-09T22:29:29.862Z,-2.90
2022-12-09T22:31:56.692Z,-2.90
2022-12-09T22:34:23.503Z,-2.91
2022-12-09T22:36:50.329Z,-2.90
2022-12-09T22:39:18.060Z,-2.93
2022-12-09T22:41:45.884Z,-2.90
2022-12-09T22:44:13.835Z,-2.97
2022-12-09T22:46:42.002Z,-3.01
2022-12-09T22:49:11.066Z,-3.02
2022-12-09T22:51:37.903Z,-3.06
2022-12-09T22:54:05.898Z,-3.04
2022-12-09T22:56:32.795Z,-3.04
2022-12-09T22:58:59.858Z,-3.05
2022-12-09T23:01:28.030Z,-3.72
2022-12-09T23:03:55.922Z,-3.09
2022-12-09T23:06:23.228Z,-3.13
2022-12-09T23:08:50.409Z,-3.18
2022-12-09T23:11:19.031Z,-3.18
2022-12-09T23:13:45.842Z,-3.21
2022-12-09T23:16:15.331Z,-3.33
2022-12-09T23:18:42.402Z,-3.36
2022-12-09T23:21:10.564Z,-3.35
2022-12-09T23:23:37.721Z,-3.30
2022-12-09T23:26:06.508Z,-3.34
2022-12-09T23:28:40.414Z,-3.39
2022-12-09T23:31:09.856Z,-3.40
2022-12-09T23:33:37.613Z,-3.40
2022-12-09T23:36:08.605Z,-3.43
2022-12-09T23:38:35.719Z,-3.45
2022-12-09T23:41:02.590Z,-3.47
2022-12-09T23:43:33.230Z,-3.48
2022-12-09T23:46:04.950Z,-3.50
2022-12-09T23:48:33.593Z,-3.52
2022-12-09T23:51:08.801Z,-3.55
2022-12-09T23:53:35.619Z,-3.59
2022-12-09T23:56:02.408Z,-3.59
2022-12-09T23:58:29.265Z,-3.58
